Time;durP1;ratioP1;P1;durP2;ratioP2;P2;SDS_P1;SDS_P2;PMS_P1;PMS_P2;Temp;Humidity;BMP_temperature;BMP_pressure;BME280_temperature;BME280_humidity;BME280_pressure;Samples;Min_cycle;Max_cycle;Signal;HPM_P1;HPM_P2
2022/02/22 00:01:29;;;;;;;14.30;2.70;;;5.90;99.90;;;;;;5074977;28;20616;-72
2022/02/22 00:03:56;;;;;;;7.65;1.65;;;5.90;99.90;;;;;;5074586;28;20211;-73
2022/02/22 00:06:22;;;;;;;4.18;2.22;;;5.90;99.90;;;;;;5075617;28;20235;-73
2022/02/22 00:08:49;;;;;;;9.07;2.80;;;5.90;99.90;;;;;;5074436;28;20590;-73
2022/02/22 00:11:15;;;;;;;7.30;2.85;;;6.00;99.90;;;;;;5074373;28;20208;-73
2022/02/22 00:13:42;;;;;;;6.82;2.10;;;6.00;99.90;;;;;;5076038;28;20215;-73
2022/02/22 00:16:08;;;;;;;11.13;2.03;;;6.00;99.90;;;;;;5076219;28;20652;-73
2022/02/22 00:18:34;;;;;;;8.30;2.10;;;5.90;99.90;;;;;;5074486;28;20200;-73
2022/02/22 00:21:01;;;;;;;8.90;2.28;;;6.00;99.90;;;;;;5075601;28;20217;-73
2022/02/22 00:23:27;;;;;;;8.70;2.85;;;6.00;99.90;;;;;;5075715;28;20203;-72
2022/02/22 00:25:54;;;;;;;13.45;2.33;;;6.00;99.90;;;;;;5075434;28;20215;-72
2022/02/22 00:28:20;;;;;;;4.97;1.95;;;6.00;99.90;;;;;;5075231;28;20200;-72
2022/02/22 00:30:48;;;;;;;6.38;2.38;;;6.00;99.90;;;;;;5075683;28;20204;-73
2022/02/22 00:33:15;;;;;;;7.00;2.97;;;6.00;99.90;;;;;;5075645;28;20199;-72
2022/02/22 00:35:42;;;;;;;4.50;1.92;;;6.00;99.90;;;;;;5075449;28;20200;-72
2022/02/22 00:38:09;;;;;;;16.42;3.10;;;6.00;99.90;;;;;;5075260;28;20207;-73
2022/02/22 00:40:36;;;;;;;7.57;2.15;;;6.00;99.90;;;;;;5074800;28;20250;-72
2022/02/22 00:43:02;;;;;;;8.40;2.45;;;6.00;99.90;;;;;;5074810;28;20214;-72
2022/02/22 00:45:29;;;;;;;16.30;2.85;;;6.00;99.90;;;;;;5075074;28;20211;-73
2022/02/22 00:47:55;;;;;;;5.50;1.98;;;5.90;99.90;;;;;;5075079;28;20214;-72
2022/02/22 00:50:22;;;;;;;8.25;2.40;;;5.80;99.90;;;;;;5073768;28;20226;-73
2022/02/22 00:52:48;;;;;;;5.85;1.85;;;5.80;99.90;;;;;;5075016;28;20196;-73
2022/02/22 00:55:15;;;;;;;11.23;2.72;;;5.70;99.90;;;;;;5074877;28;20689;-73
2022/02/22 00:57:43;;;;;;;9.20;2.60;;;5.60;99.90;;;;;;5075248;28;20203;-73
2022/02/22 01:00:11;;;;;;;5.68;2.10;;;5.60;99.90;;;;;;5075016;28;20204;-73
2022/02/22 01:02:38;;;;;;;9.55;2.50;;;5.50;99.90;;;;;;5075095;28;20207;-72
2022/02/22 01:05:05;;;;;;;10.52;2.67;;;5.50;99.90;;;;;;5074951;28;20228;-73
2022/02/22 01:07:32;;;;;;;11.27;2.53;;;5.40;99.90;;;;;;5075062;28;20230;-73
2022/02/22 01:09:58;;;;;;;4.10;2.40;;;5.40;99.90;;;;;;5074488;28;20687;-72
2022/02/22 01:12:25;;;;;;;8.05;2.42;;;5.30;99.90;;;;;;5074696;28;20200;-72
2022/02/22 01:14:51;;;;;;;8.18;2.40;;;5.30;99.90;;;;;;5075049;28;20218;-73
2022/02/22 01:17:18;;;;;;;11.20;2.78;;;5.30;99.90;;;;;;5074200;28;20195;-73
2022/02/22 01:19:44;;;;;;;8.00;2.72;;;5.30;99.90;;;;;;5074471;28;20200;-73
2022/02/22 01:22:11;;;;;;;9.35;3.00;;;5.20;99.90;;;;;;5073151;28;20750;-73
2022/02/22 01:24:37;;;;;;;6.30;2.38;;;5.20;99.90;;;;;;5073472;28;20203;-73
2022/02/22 01:27:04;;;;;;;6.07;2.53;;;5.10;99.90;;;;;;5074611;28;20261;-73
2022/02/22 01:29:32;;;;;;;9.60;2.65;;;5.00;99.90;;;;;;5072953;28;20212;-72
2022/02/22 01:31:59;;;;;;;15.98;2.67;;;5.00;99.90;;;;;;5074091;28;20196;-73
2022/02/22 01:34:25;;;;;;;11.73;2.78;;;4.90;99.90;;;;;;5075498;28;20204;-73
2022/02/22 01:36:52;;;;;;;10.85;2.40;;;4.90;99.90;;;;;;5075256;28;20203;-73
2022/02/22 01:39:18;;;;;;;4.55;2.70;;;4.90;99.90;;;;;;5074352;28;20682;-72
2022/02/22 01:41:45;;;;;;;6.40;2.30;;;4.90;99.90;;;;;;5074538;28;20423;-73
2022/02/22 01:44:13;;;;;;;2.80;1.88;;;4.80;99.90;;;;;;5075083;28;20609;-73
2022/02/22 01:46:40;;;;;;;7.10;2.92;;;4.70;99.90;;;;;;5074825;28;20659;-72
2022/02/22 01:49:06;;;;;;;9.15;2.45;;;4.60;99.90;;;;;;5073336;28;20575;-73
2022/02/22 01:51:33;;;;;;;11.05;3.00;;;4.60;99.90;;;;;;5074198;28;20203;-73
2022/02/22 01:53:59;;;;;;;8.35;2.15;;;4.70;99.90;;;;;;5074470;28;20200;-73
2022/02/22 01:56:26;;;;;;;9.32;2.30;;;4.70;99.90;;;;;;5073123;28;20200;-73
2022/02/22 01:58:53;;;;;;;12.90;2.70;;;4.80;99.90;;;;;;5074510;28;20218;-73
2022/02/22 02:01:19;;;;;;;5.70;2.20;;;4.90;99.90;;;;;;5077030;28;20614;-72
2022/02/22 02:03:47;;;;;;;19.77;2.45;;;5.00;99.90;;;;;;5078370;28;20667;-72
2022/02/22 02:06:17;;;;;;;9.95;2.28;;;5.10;99.90;;;;;;5077094;28;20595;-73
2022/02/22 02:08:44;;;;;;;7.50;1.80;;;5.10;99.90;;;;;;5077377;28;20207;-72
2022/02/22 02:11:11;;;;;;;7.55;2.20;;;5.10;99.90;;;;;;5078450;28;20207;-72
2022/02/22 02:13:37;;;;;;;11.18;2.53;;;5.10;99.90;;;;;;5060266;28;20204;-72
2022/02/22 02:16:05;;;;;;;5.10;2.40;;;5.10;99.90;;;;;;5078038;28;20203;-73
2022/02/22 02:18:31;;;;;;;11.23;2.17;;;5.20;99.90;;;;;;5078124;28;20206;-72
2022/02/22 02:20:58;;;;;;;7.63;2.90;;;5.30;99.90;;;;;;5078563;28;20269;-72
2022/02/22 02:23:25;;;;;;;6.00;2.20;;;5.30;99.90;;;;;;5076735;28;20219;-72
2022/02/22 02:25:51;;;;;;;4.05;2.15;;;5.40;99.90;;;;;;5078154;28;20200;-72
2022/02/22 02:28:18;;;;;;;5.57;2.63;;;5.40;99.90;;;;;;5078023;28;20206;-72
2022/02/22 02:30:44;;;;;;;6.03;2.00;;;5.40;99.90;;;;;;5078112;28;20549;-72
2022/02/22 02:33:10;;;;;;;7.90;2.10;;;5.40;99.90;;;;;;5078198;28;20208;-72
2022/02/22 02:35:37;;;;;;;5.45;1.98;;;5.30;99.90;;;;;;5078442;28;20257;-72
2022/02/22 02:38:03;;;;;;;6.93;2.63;;;5.40;99.90;;;;;;5078323;28;20230;-72
2022/02/22 02:40:30;;;;;;;5.53;1.77;;;5.40;99.90;;;;;;5078344;28;20253;-73
2022/02/22 02:42:56;;;;;;;1.92;1.63;;;5.40;99.90;;;;;;5078179;28;20238;-72
2022/02/22 02:45:23;;;;;;;6.03;2.45;;;5.40;99.90;;;;;;5077797;28;20196;-72
2022/02/22 02:47:49;;;;;;;5.70;2.30;;;5.50;99.90;;;;;;5077797;28;20347;-73
2022/02/22 02:50:16;;;;;;;11.32;3.38;;;5.50;99.90;;;;;;5076086;28;20587;-72
2022/02/22 02:52:43;;;;;;;15.98;2.58;;;5.50;99.90;;;;;;5075976;28;20204;-72
2022/02/22 02:55:10;;;;;;;5.72;2.30;;;5.50;99.90;;;;;;5077436;28;20257;-72
2022/02/22 02:57:38;;;;;;;10.90;2.55;;;5.50;99.90;;;;;;5077890;28;20200;-72
2022/02/22 03:00:06;;;;;;;4.03;2.10;;;5.50;99.90;;;;;;5077580;28;20671;-72
2022/02/22 03:02:33;;;;;;;7.38;2.70;;;5.60;99.90;;;;;;5075864;28;20208;-72
2022/02/22 03:04:59;;;;;;;5.75;2.47;;;5.60;99.90;;;;;;5076426;28;20251;-72
2022/02/22 03:07:29;;;;;;;38.47;23.65;;;5.60;99.90;;;;;;5077157;28;20244;-72
2022/02/22 03:09:55;;;;;;;54.88;31.75;;;5.60;99.90;;;;;;5077061;28;20227;-72
2022/02/22 03:12:22;;;;;;;7.63;2.85;;;5.60;99.90;;;;;;5076558;28;20204;-73
2022/02/22 03:14:49;;;;;;;9.65;2.72;;;5.60;99.90;;;;;;5076954;28;20682;-72
2022/02/22 03:17:15;;;;;;;10.48;3.13;;;5.60;99.90;;;;;;5058900;28;20588;-72
2022/02/22 03:19:42;;;;;;;6.40;2.90;;;5.50;99.90;;;;;;5077150;28;20215;-72
2022/02/22 03:22:08;;;;;;;7.53;5.32;;;5.50;99.90;;;;;;5077065;28;20196;-72
2022/02/22 03:24:35;;;;;;;11.35;6.03;;;5.50;99.90;;;;;;5076750;28;20211;-72
2022/02/22 03:27:01;;;;;;;13.00;8.80;;;5.40;99.90;;;;;;5075425;28;20211;-72
2022/02/22 03:29:28;;;;;;;18.77;15.00;;;5.40;99.90;;;;;;5076846;28;20278;-72
2022/02/22 03:31:54;;;;;;;16.05;9.38;;;5.40;99.90;;;;;;5076917;28;20203;-72
2022/02/22 03:34:21;;;;;;;33.53;19.52;;;5.40;99.90;;;;;;5076256;28;20265;-72
2022/02/22 03:36:47;;;;;;;10.45;6.47;;;5.30;99.90;;;;;;5075293;28;20211;-72
2022/02/22 03:39:13;;;;;;;14.85;7.75;;;5.30;99.90;;;;;;5076236;28;20196;-72
2022/02/22 03:41:40;;;;;;;11.93;6.72;;;5.30;99.90;;;;;;5076255;28;20211;-72
2022/02/22 03:44:06;;;;;;;12.82;8.55;;;5.30;99.90;;;;;;5076875;28;20663;-72
2022/02/22 03:46:33;;;;;;;16.88;8.95;;;5.30;99.90;;;;;;5076314;28;20200;-72
2022/02/22 03:48:59;;;;;;;17.50;5.38;;;5.30;99.90;;;;;;5076787;28;20284;-72
2022/02/22 03:51:26;;;;;;;14.50;8.05;;;5.30;99.90;;;;;;5076078;28;20203;-72
2022/02/22 03:53:52;;;;;;;8.50;3.70;;;5.20;99.90;;;;;;5076472;28;20195;-72
2022/02/22 03:56:19;;;;;;;8.80;4.75;;;5.20;99.90;;;;;;5076486;28;20196;-72
2022/02/22 03:58:45;;;;;;;10.60;3.85;;;5.20;99.90;;;;;;5076125;28;20215;-72
2022/02/22 04:01:12;;;;;;;18.90;10.70;;;5.20;99.90;;;;;;5074616;28;20200;-72
2022/02/22 04:03:38;;;;;;;13.32;8.93;;;5.10;99.90;;;;;;5075765;28;20203;-71
2022/02/22 04:06:05;;;;;;;20.83;15.52;;;5.10;99.90;;;;;;5075563;28;20232;-71
2022/02/22 04:08:32;;;;;;;15.98;10.60;;;5.00;99.90;;;;;;5075815;28;20211;-71
2022/02/22 04:10:59;;;;;;;15.38;10.45;;;5.10;99.90;;;;;;5075987;28;20224;-71
2022/02/22 04:13:25;;;;;;;9.98;5.72;;;5.00;99.90;;;;;;5075958;28;20218;-71
2022/02/22 04:15:52;;;;;;;7.75;5.50;;;5.00;99.90;;;;;;5074431;28;20200;-71
2022/02/22 04:18:19;;;;;;;9.73;5.45;;;5.00;99.90;;;;;;5075846;28;20200;-71
2022/02/22 04:20:46;;;;;;;8.88;5.18;;;4.90;99.90;;;;;;5075792;28;20210;-71
2022/02/22 04:23:12;;;;;;;6.93;3.75;;;4.90;99.90;;;;;;5074675;28;20200;-71
2022/02/22 04:25:39;;;;;;;16.13;9.20;;;4.90;99.90;;;;;;5075389;28;20188;-71
2022/02/22 04:28:05;;;;;;;11.75;5.55;;;4.90;99.90;;;;;;5075435;28;20204;-71
2022/02/22 04:30:32;;;;;;;9.68;4.55;;;4.80;99.90;;;;;;5074016;28;20699;-71
2022/02/22 04:32:59;;;;;;;10.65;3.50;;;4.70;99.90;;;;;;5076265;28;20196;-72
2022/02/22 04:35:25;;;;;;;9.30;4.97;;;4.80;99.90;;;;;;5076074;28;20202;-71
2022/02/22 04:37:52;;;;;;;11.27;6.97;;;4.70;99.90;;;;;;5074422;28;20204;-71
2022/02/22 04:40:19;;;;;;;16.10;11.18;;;4.70;99.90;;;;;;5075595;28;20245;-71
2022/02/22 04:42:48;;;;;;;15.15;7.30;;;4.70;99.90;;;;;;5075681;28;20211;-71
2022/02/22 04:45:16;;;;;;;15.25;8.32;;;4.70;99.90;;;;;;5075958;28;20609;-72
2022/02/22 04:47:42;;;;;;;9.10;5.78;;;4.70;99.90;;;;;;5075406;28;20204;-72
2022/02/22 04:50:09;;;;;;;19.92;11.45;;;4.70;99.90;;;;;;5076022;28;20223;-72
2022/02/22 04:52:35;;;;;;;30.60;15.35;;;4.60;99.90;;;;;;5076013;28;20201;-72
2022/02/22 04:55:06;;;;;;;27.77;17.15;;;4.60;99.90;;;;;;5076549;28;20200;-72
2022/02/22 04:57:37;;;;;;;36.03;21.27;;;4.50;99.90;;;;;;5074541;28;20203;-72
2022/02/22 05:00:07;;;;;;;17.33;8.43;;;4.60;99.90;;;;;;5075690;28;20214;-72
2022/02/22 05:02:33;;;;;;;14.82;9.85;;;4.50;99.90;;;;;;5075400;28;20203;-72
2022/02/22 05:05:00;;;;;;;8.30;4.75;;;4.50;99.90;;;;;;5075038;28;20242;-71
2022/02/22 05:07:26;;;;;;;7.72;5.35;;;4.60;99.90;;;;;;5075294;28;20587;-72
2022/02/22 05:09:53;;;;;;;8.80;4.18;;;4.50;99.90;;;;;;5075510;28;20216;-73
2022/02/22 05:12:21;;;;;;;4.88;3.67;;;4.50;99.90;;;;;;5075338;28;20197;-73
2022/02/22 05:14:47;;;;;;;8.77;4.47;;;4.50;99.90;;;;;;5075288;28;20698;-73
2022/02/22 05:17:14;;;;;;;4.90;4.45;;;4.50;99.90;;;;;;5074972;28;20582;-73
2022/02/22 05:19:40;;;;;;;7.13;3.55;;;4.50;99.90;;;;;;5074471;28;20208;-73
2022/02/22 05:22:07;;;;;;;10.23;6.38;;;4.50;99.90;;;;;;5074827;28;20588;-73
2022/02/22 05:24:33;;;;;;;7.68;4.10;;;4.50;99.90;;;;;;5074451;28;20210;-72
2022/02/22 05:27:00;;;;;;;7.43;3.45;;;4.50;99.90;;;;;;5074201;28;20736;-72
2022/02/22 05:29:26;;;;;;;12.77;5.20;;;4.40;99.90;;;;;;5074629;28;20200;-72
2022/02/22 05:31:53;;;;;;;26.65;16.33;;;4.50;99.90;;;;;;5074078;28;20655;-72
2022/02/22 05:34:19;;;;;;;11.98;7.93;;;4.40;99.90;;;;;;5074561;28;20693;-72
2022/02/22 05:36:48;;;;;;;18.63;12.15;;;4.40;99.90;;;;;;5074531;28;20340;-72
2022/02/22 05:39:15;;;;;;;12.32;6.15;;;4.50;99.90;;;;;;5074169;28;20211;-72
2022/02/22 05:41:41;;;;;;;21.38;13.23;;;4.40;99.90;;;;;;5074377;28;20208;-72
2022/02/22 05:44:07;;;;;;;10.63;4.55;;;4.40;99.90;;;;;;5074423;28;20227;-72
2022/02/22 05:46:34;;;;;;;9.27;6.22;;;4.50;99.90;;;;;;5074476;28;20210;-73
2022/02/22 05:49:00;;;;;;;8.20;6.47;;;4.50;99.90;;;;;;5073626;28;20694;-72
2022/02/22 05:51:27;;;;;;;10.75;6.18;;;4.50;99.90;;;;;;5073110;28;20242;-73
2022/02/22 05:53:54;;;;;;;9.75;4.97;;;4.50;99.90;;;;;;5073815;28;20290;-72
2022/02/22 05:56:20;;;;;;;23.63;12.32;;;4.50;99.90;;;;;;5073873;28;20196;-72
2022/02/22 05:58:46;;;;;;;20.70;12.35;;;4.40;99.90;;;;;;5073707;28;20203;-72
2022/02/22 06:01:14;;;;;;;22.52;12.50;;;4.40;99.90;;;;;;5074048;28;20207;-72
2022/02/22 06:03:40;;;;;;;13.65;5.32;;;4.40;99.90;;;;;;5073989;28;20206;-72
2022/02/22 06:06:07;;;;;;;13.48;8.27;;;4.40;99.90;;;;;;5071950;28;20240;-72
2022/02/22 06:08:33;;;;;;;10.95;7.82;;;4.40;99.90;;;;;;5073690;28;20560;-72
2022/02/22 06:10:59;;;;;;;10.68;4.93;;;4.40;99.90;;;;;;5073962;28;20215;-72
2022/02/22 06:13:26;;;;;;;12.07;3.88;;;4.30;99.90;;;;;;5072615;28;20211;-72
2022/02/22 06:15:52;;;;;;;7.80;4.18;;;4.40;99.90;;;;;;5074243;28;20200;-72
2022/02/22 06:18:19;;;;;;;13.32;3.75;;;4.40;99.90;;;;;;5073804;28;20204;-72
2022/02/22 06:20:45;;;;;;;16.00;3.45;;;4.40;99.90;;;;;;5074048;28;20626;-72
2022/02/22 06:23:13;;;;;;;9.45;3.88;;;4.40;99.90;;;;;;5074385;28;20215;-72
2022/02/22 06:25:39;;;;;;;12.23;4.03;;;4.30;99.90;;;;;;5074122;28;20199;-72
2022/02/22 06:28:06;;;;;;;10.27;3.67;;;4.30;99.90;;;;;;5074122;28;20212;-72
2022/02/22 06:30:33;;;;;;;13.10;3.72;;;4.30;99.90;;;;;;5074058;28;20223;-72
2022/02/22 06:33:00;;;;;;;6.43;3.47;;;4.20;99.90;;;;;;5073828;28;20321;-72
2022/02/22 06:35:26;;;;;;;6.18;3.78;;;4.20;99.90;;;;;;5073749;28;20215;-72
2022/02/22 06:37:52;;;;;;;11.38;4.65;;;4.30;99.90;;;;;;5073854;28;20203;-72
2022/02/22 06:40:19;;;;;;;12.57;4.70;;;4.30;99.90;;;;;;5073401;28;20208;-72
2022/02/22 06:42:45;;;;;;;16.98;4.38;;;4.40;99.90;;;;;;5073586;28;20199;-71
2022/02/22 06:45:12;;;;;;;14.52;4.38;;;4.40;99.90;;;;;;5072694;28;20283;-73
2022/02/22 06:47:41;;;;;;;7.38;3.80;;;4.40;99.90;;;;;;5077550;28;20204;-72
2022/02/22 06:50:11;;;;;;;11.52;5.65;;;4.50;99.90;;;;;;5077638;28;20223;-71
2022/02/22 06:52:39;;;;;;;11.32;4.63;;;4.50;99.90;;;;;;5077658;28;20529;-71
2022/02/22 06:55:08;;;;;;;11.57;4.40;;;4.50;99.90;;;;;;5076352;28;20211;-73
2022/02/22 06:57:35;;;;;;;16.75;6.20;;;4.50;99.90;;;;;;5077496;28;20237;-73
2022/02/22 07:00:03;;;;;;;10.27;3.90;;;4.50;99.90;;;;;;5077530;28;20208;-73
2022/02/22 07:02:30;;;;;;;7.28;3.90;;;4.50;99.90;;;;;;5078391;28;20200;-74
2022/02/22 07:04:56;;;;;;;10.02;3.78;;;4.60;99.90;;;;;;5075998;28;20726;-72
2022/02/22 07:07:24;;;;;;;13.80;4.68;;;4.60;99.90;;;;;;5078076;28;20223;-74
2022/02/22 07:09:51;;;;;;;8.45;3.55;;;4.70;99.90;;;;;;5077703;28;20559;-72
2022/02/22 07:12:17;;;;;;;11.05;4.05;;;4.70;99.90;;;;;;5077909;28;20196;-73
2022/02/22 07:14:44;;;;;;;11.55;4.60;;;4.80;99.90;;;;;;5075917;28;20655;-73
2022/02/22 07:17:10;;;;;;;9.52;3.97;;;4.90;99.90;;;;;;5075530;28;20200;-72
2022/02/22 07:19:37;;;;;;;8.15;3.22;;;4.90;99.90;;;;;;5077046;28;20204;-73
2022/02/22 07:22:04;;;;;;;15.23;4.18;;;5.00;99.90;;;;;;5077435;28;20230;-73
2022/02/22 07:24:32;;;;;;;10.52;3.50;;;5.10;99.90;;;;;;5077547;28;20670;-73
2022/02/22 07:26:58;;;;;;;10.48;3.05;;;5.20;99.90;;;;;;5076852;28;20196;-73
2022/02/22 07:29:25;;;;;;;8.85;3.42;;;5.30;99.90;;;;;;5075386;28;20196;-72
2022/02/22 07:31:51;;;;;;;8.45;2.80;;;5.30;99.90;;;;;;5077093;28;20219;-72
2022/02/22 07:34:18;;;;;;;9.63;3.38;;;5.50;99.90;;;;;;5077347;28;20200;-72
2022/02/22 07:36:45;;;;;;;4.80;3.70;;;5.60;99.90;;;;;;5076501;28;20212;-72
2022/02/22 07:39:11;;;;;;;5.30;3.20;;;5.70;99.90;;;;;;5076668;28;20207;-72
2022/02/22 07:41:38;;;;;;;7.28;3.10;;;5.80;99.90;;;;;;5077043;28;20207;-72
2022/02/22 07:44:05;;;;;;;11.98;3.53;;;5.90;99.90;;;;;;5076830;28;20204;-72
2022/02/22 07:46:31;;;;;;;10.27;3.17;;;5.90;99.90;;;;;;5076348;28;20538;-72
2022/02/22 07:48:58;;;;;;;9.68;3.20;;;6.10;99.90;;;;;;5076717;28;20195;-72
2022/02/22 07:51:24;;;;;;;8.52;2.63;;;6.10;99.90;;;;;;5076702;28;20220;-72
2022/02/22 07:53:51;;;;;;;6.97;3.00;;;6.00;99.90;;;;;;5075938;28;20210;-72
2022/02/22 07:56:18;;;;;;;10.20;3.20;;;6.10;99.90;;;;;;5074926;28;20199;-73
2022/02/22 07:58:44;;;;;;;13.35;2.85;;;6.10;99.90;;;;;;5075679;28;20219;-72
2022/02/22 08:01:14;;;;;;;9.95;3.47;;;6.10;99.90;;;;;;5076400;28;20273;-71
2022/02/22 08:03:44;;;;;;;8.05;3.60;;;6.10;99.90;;;;;;5075848;28;20229;-72
2022/02/22 08:06:14;;;;;;;14.85;4.35;;;6.10;99.90;;;;;;5075545;28;20243;-73
2022/02/22 08:08:41;;;;;;;8.35;4.00;;;6.10;99.90;;;;;;5075309;28;20200;-73
2022/02/22 08:11:07;;;;;;;5.35;3.05;;;6.10;99.90;;;;;;5075945;28;20600;-72
2022/02/22 08:13:34;;;;;;;5.78;2.53;;;6.20;99.90;;;;;;5075182;28;20214;-73
2022/02/22 08:16:00;;;;;;;10.00;3.45;;;6.20;99.90;;;;;;5077603;28;20536;-73
2022/02/22 08:18:27;;;;;;;7.70;3.10;;;6.30;99.90;;;;;;5077464;28;20192;-73
2022/02/22 08:20:53;;;;;;;8.98;3.35;;;6.40;99.90;;;;;;5077279;28;20344;-72
2022/02/22 08:23:20;;;;;;;7.10;2.78;;;6.50;99.90;;;;;;5077507;28;20207;-73
2022/02/22 08:25:46;;;;;;;8.85;3.20;;;6.40;99.90;;;;;;5077205;28;20690;-73
2022/02/22 08:28:12;;;;;;;10.15;2.70;;;6.40;99.90;;;;;;5076056;28;20207;-73
2022/02/22 08:30:39;;;;;;;10.07;3.70;;;6.40;99.90;;;;;;5075503;28;20695;-71
2022/02/22 08:33:09;;;;;;;9.85;2.83;;;6.40;99.90;;;;;;5059066;28;20196;-71
2022/02/22 08:35:35;;;;;;;8.90;3.85;;;6.50;99.90;;;;;;5077085;28;20196;-72
2022/02/22 08:38:02;;;;;;;6.45;1.95;;;6.50;99.90;;;;;;5077214;28;20196;-71
2022/02/22 08:40:29;;;;;;;8.13;3.10;;;6.60;99.90;;;;;;5076621;28;20200;-72
2022/02/22 08:42:55;;;;;;;14.70;4.10;;;6.70;99.90;;;;;;5077011;28;20670;-72
2022/02/22 08:45:24;;;;;;;7.57;3.15;;;6.70;99.90;;;;;;5076708;28;20210;-71
2022/02/22 08:47:50;;;;;;;27.20;3.22;;;6.70;99.90;;;;;;5074838;28;20192;-72
2022/02/22 08:50:17;;;;;;;9.60;3.17;;;6.80;99.90;;;;;;5076969;28;20207;-72
2022/02/22 08:52:43;;;;;;;4.78;2.33;;;6.80;99.90;;;;;;5075775;28;20200;-72
2022/02/22 08:55:10;;;;;;;9.73;3.17;;;6.90;99.90;;;;;;5075096;28;20200;-72
2022/02/22 08:57:36;;;;;;;7.78;3.22;;;6.90;99.90;;;;;;5076872;28;20200;-73
2022/02/22 09:00:10;;;;;;;5.70;2.53;;;7.00;99.90;;;;;;5076577;28;20675;-71
2022/02/22 09:02:37;;;;;;;8.40;3.13;;;7.10;99.90;;;;;;5074978;28;20199;-72
2022/02/22 09:05:04;;;;;;;8.30;2.83;;;7.10;99.90;;;;;;5075424;28;20236;-72
2022/02/22 09:07:31;;;;;;;8.73;2.63;;;7.10;99.90;;;;;;5075376;28;20220;-72
2022/02/22 09:09:57;;;;;;;8.55;3.05;;;7.20;99.90;;;;;;5073586;28;20200;-72
2022/02/22 09:12:24;;;;;;;10.23;3.55;;;7.40;99.90;;;;;;5074842;28;20223;-73
2022/02/22 09:14:51;;;;;;;10.38;2.45;;;7.30;99.90;;;;;;5058127;28;20199;-73
2022/02/22 09:17:17;;;;;;;15.63;4.28;;;7.50;99.90;;;;;;5075251;28;20192;-74
2022/02/22 09:19:43;;;;;;;8.95;2.78;;;7.30;99.90;;;;;;5076360;28;20199;-73
2022/02/22 09:22:11;;;;;;;8.82;2.83;;;7.30;99.90;;;;;;5076255;28;20204;-73
2022/02/22 09:24:37;;;;;;;12.88;2.90;;;7.40;99.90;;;;;;5074782;28;20721;-73
2022/02/22 09:27:04;;;;;;;12.18;3.78;;;7.60;99.90;;;;;;5074771;28;20572;-72
2022/02/22 09:29:30;;;;;;;8.35;3.08;;;7.70;99.90;;;;;;5075802;28;20203;-72
2022/02/22 09:31:57;;;;;;;8.38;3.42;;;7.90;99.90;;;;;;5057140;28;20211;-72
2022/02/22 09:34:23;;;;;;;9.38;3.10;;;7.90;99.90;;;;;;5040479;28;20200;-72
2022/02/22 09:36:50;;;;;;;17.55;4.18;;;8.20;99.90;;;;;;5075090;28;20209;-72
2022/02/22 09:39:16;;;;;;;8.32;3.83;;;8.20;99.90;;;;;;5073670;28;20196;-72
2022/02/22 09:41:43;;;;;;;11.10;4.60;;;8.10;99.90;;;;;;5075677;28;20534;-72
2022/02/22 09:44:09;;;;;;;5.40;3.35;;;8.30;99.90;;;;;;5074183;28;20575;-72
2022/02/22 09:46:38;;;;;;;9.68;3.30;;;8.40;99.90;;;;;;5074899;28;20268;-73
2022/02/22 09:49:04;;;;;;;8.02;3.60;;;8.40;99.90;;;;;;5075088;28;20671;-72
2022/02/22 09:51:31;;;;;;;12.48;4.05;;;8.20;99.90;;;;;;5075199;28;20671;-72
2022/02/22 09:53:57;;;;;;;11.70;3.95;;;8.30;99.90;;;;;;5076203;28;20288;-72
2022/02/22 09:56:25;;;;;;;14.48;3.30;;;8.30;99.90;;;;;;5058130;28;20206;-72
2022/02/22 09:58:51;;;;;;;13.95;3.80;;;8.30;99.90;;;;;;5075428;28;20204;-72
2022/02/22 10:01:18;;;;;;;10.50;3.60;;;8.10;99.90;;;;;;5074576;28;20203;-72
2022/02/22 10:03:55;;;;;;;13.32;4.22;;;8.30;99.90;;;;;;5075806;28;20195;-72
2022/02/22 10:06:23;;;;;;;10.77;4.00;;;8.50;99.90;;;;;;5075636;28;20219;-72
2022/02/22 10:08:55;;;;;;;11.82;4.13;;;8.40;99.90;;;;;;5075323;28;20200;-72
2022/02/22 10:11:21;;;;;;;12.60;4.22;;;8.20;99.90;;;;;;5074506;28;20223;-72
2022/02/22 10:13:48;;;;;;;13.02;5.13;;;8.30;99.90;;;;;;5073929;28;20203;-72
2022/02/22 10:16:15;;;;;;;14.50;4.30;;;8.00;99.90;;;;;;5075179;28;20651;-73
2022/02/22 10:18:53;;;;;;;18.73;4.63;;;8.10;99.90;;;;;;5075318;28;20200;-73
2022/02/22 10:21:21;;;;;;;12.65;4.15;;;8.10;99.90;;;;;;5075051;28;20210;-72
2022/02/22 10:23:47;;;;;;;12.43;3.70;;;8.10;99.90;;;;;;5079014;28;20199;-72
2022/02/22 10:26:22;;;;;;;10.05;4.38;;;8.30;99.90;;;;;;5080135;28;20206;-72
2022/02/22 10:28:49;;;;;;;18.10;4.70;;;8.20;99.90;;;;;;5079622;28;20203;-72
2022/02/22 10:31:15;;;;;;;8.48;3.53;;;8.10;99.90;;;;;;5080018;28;20691;-72
2022/02/22 10:33:44;;;;;;;12.70;3.70;;;8.00;99.90;;;;;;5080971;28;20192;-72
2022/02/22 10:36:20;;;;;;;17.70;4.47;;;8.10;99.90;;;;;;5080199;28;20711;-72
2022/02/22 10:38:46;;;;;;;9.98;4.75;;;8.10;99.90;;;;;;5079840;28;20203;-72
2022/02/22 10:41:15;;;;;;;11.48;4.10;;;8.10;99.90;;;;;;5078876;28;20207;-73
2022/02/22 10:43:53;;;;;;;12.20;4.90;;;8.20;99.90;;;;;;5078214;28;20203;-73
2022/02/22 10:46:28;;;;;;;13.20;4.38;;;8.20;99.90;;;;;;5079123;28;20440;-72
2022/02/22 10:49:06;;;;;;;13.00;4.65;;;8.40;99.90;;;;;;5078871;28;20203;-72
2022/02/22 10:51:41;;;;;;;15.73;4.53;;;8.30;99.90;;;;;;5078642;28;20269;-72
2022/02/22 10:54:09;;;;;;;17.90;5.18;;;8.30;99.90;;;;;;5078199;28;20195;-72
2022/02/22 10:56:36;;;;;;;17.50;4.03;;;8.50;99.90;;;;;;5077957;28;20257;-72
2022/02/22 10:59:04;;;;;;;21.40;5.80;;;8.40;99.90;;;;;;5077663;28;20655;-72
2022/02/22 11:01:31;;;;;;;16.48;4.10;;;8.40;99.90;;;;;;5077821;28;20211;-73
2022/02/22 11:03:58;;;;;;;11.93;4.20;;;8.40;99.90;;;;;;5077625;28;20207;-72
2022/02/22 11:06:25;;;;;;;8.63;4.18;;;8.30;99.90;;;;;;5076845;28;20281;-72
2022/02/22 11:08:53;;;;;;;15.48;5.45;;;8.20;99.90;;;;;;5078027;28;20204;-71
2022/02/22 11:11:37;;;;;;;12.23;3.67;;;8.10;99.90;;;;;;5077667;28;20216;-71
2022/02/22 11:14:09;;;;;;;10.05;4.50;;;8.30;99.90;;;;;;5077600;28;20200;-71
2022/02/22 11:16:38;;;;;;;20.85;5.65;;;8.30;99.90;;;;;;5077560;28;20207;-71
2022/02/22 11:19:21;;;;;;;16.02;4.00;;;8.30;99.90;;;;;;5078269;28;20199;-71
2022/02/22 11:21:50;;;;;;;13.68;3.85;;;8.30;99.90;;;;;;5078009;28;20204;-72
2022/02/22 11:24:24;;;;;;;22.75;4.22;;;8.50;99.90;;;;;;5077491;28;20211;-71
2022/02/22 11:26:54;;;;;;;16.95;4.05;;;8.40;99.90;;;;;;5076077;28;20211;-71
2022/02/22 11:29:22;;;;;;;10.85;3.45;;;8.40;99.90;;;;;;5077356;28;20204;-72
2022/02/22 11:32:07;;;;;;;11.23;4.55;;;8.60;99.90;;;;;;5076196;28;20227;-72
2022/02/22 11:34:35;;;;;;;17.60;4.63;;;8.70;99.90;;;;;;5077059;28;20210;-73
2022/02/22 11:37:04;;;;;;;14.48;3.53;;;8.70;99.90;;;;;;5076933;28;20196;-72
2022/02/22 11:39:41;;;;;;;19.50;3.60;;;8.80;99.90;;;;;;5077071;28;20715;-72
2022/02/22 11:42:19;;;;;;;17.30;3.90;;;8.60;99.90;;;;;;5076758;28;20584;-71
2022/02/22 11:45:19;;;;;;;14.13;4.15;;;8.60;99.90;;;;;;5076629;28;20203;-72
2022/02/22 11:47:46;;;;;;;13.80;5.35;;;8.80;99.90;;;;;;5072754;28;20199;-71
2022/02/22 11:50:16;;;;;;;17.27;4.30;;;8.70;99.90;;;;;;5076316;28;20749;-71
2022/02/22 11:52:47;;;;;;;17.92;5.30;;;8.60;99.90;;;;;;5074710;28;20658;-70
2022/02/22 11:55:17;;;;;;;16.88;4.05;;;8.60;99.90;;;;;;5075270;28;20196;-70
2022/02/22 11:57:45;;;;;;;19.05;4.60;;;8.60;99.90;;;;;;5076845;28;20207;-71
2022/02/22 12:00:56;;;;;;;18.52;5.95;;;8.60;99.90;;;;;;5075616;28;20199;-72
2022/02/22 12:03:24;;;;;;;15.48;3.60;;;8.60;99.90;;;;;;5075635;28;20204;-71
2022/02/22 12:05:57;;;;;;;16.08;4.25;;;8.70;99.90;;;;;;5074999;28;20243;-72
2022/02/22 12:08:27;;;;;;;27.40;7.20;;;8.70;99.90;;;;;;5073939;28;20208;-71
2022/02/22 12:10:55;;;;;;;24.85;4.70;;;8.60;99.90;;;;;;5075001;28;20203;-72
2022/02/22 12:13:24;;;;;;;12.52;4.32;;;8.70;99.90;;;;;;5075226;28;20265;-71
2022/02/22 12:15:51;;;;;;;17.10;4.88;;;8.80;99.90;;;;;;5074757;28;20200;-71
2022/02/22 12:18:26;;;;;;;17.00;5.43;;;8.80;99.90;;;;;;5074615;28;20196;-70
2022/02/22 12:20:54;;;;;;;14.18;5.65;;;8.80;99.90;;;;;;5074684;28;20658;-71
2022/02/22 12:23:26;;;;;;;16.13;4.78;;;8.80;99.90;;;;;;5074616;28;20261;-71
2022/02/22 12:25:55;;;;;;;23.13;6.13;;;8.80;99.90;;;;;;5074572;28;20204;-72
2022/02/22 12:28:23;;;;;;;15.40;5.57;;;8.80;99.90;;;;;;5074926;28;20520;-72
2022/02/22 12:30:56;;;;;;;19.35;5.10;;;8.80;99.90;;;;;;5074307;28;20200;-70
2022/02/22 12:33:31;;;;;;;25.90;5.53;;;8.80;99.90;;;;;;5074758;28;20188;-71
2022/02/22 12:35:58;;;;;;;21.23;5.53;;;8.70;99.90;;;;;;5074447;28;20244;-72
2022/02/22 12:38:28;;;;;;;24.52;6.90;;;8.70;99.90;;;;;;5074557;28;20204;-72
2022/02/22 12:40:54;;;;;;;18.42;6.07;;;8.70;99.90;;;;;;5074118;28;20731;-71
2022/02/22 12:43:20;;;;;;;19.05;5.18;;;8.80;99.90;;;;;;5073956;28;20200;-71
2022/02/22 12:45:51;;;;;;;16.73;5.03;;;8.80;99.90;;;;;;5074084;28;20196;-70
2022/02/22 12:48:20;;;;;;;18.35;5.15;;;8.80;99.90;;;;;;5072875;28;20582;-71
2022/02/22 12:50:57;;;;;;;16.70;4.55;;;8.90;99.90;;;;;;5074187;28;20204;-72
2022/02/22 12:53:25;;;;;;;19.90;5.15;;;8.80;99.90;;;;;;5074565;28;20203;-73